sensor_id;sensor_type;location;lat;lon;timestamp;temperature;humidity
11009;DHT22;5557;51.670;7.788;2022-12-11T00:00:23;0.50;99.90
11009;DHT22;5557;51.670;7.788;2022-12-11T00:02:50;0.50;99.90
11009;DHT22;5557;51.670;7.788;2022-12-11T00:05:17;0.50;99.90
11009;DHT22;5557;51.670;7.788;2022-12-11T00:07:44;0.50;99.90
11009;DHT22;5557;51.670;7.788;2022-12-11T00:10:11;0.50;99.90
11009;DHT22;5557;51.670;7.788;2022-12-11T00:12:38;0.50;99.90
11009;DHT22;5557;51.670;7.788;2022-12-11T00:15:05;0.50;99.90
11009;DHT22;5557;51.670;7.788;2022-12-11T00:17:33;0.50;99.90
11009;DHT22;5557;51.670;7.788;2022-12-11T00:20:00;0.50;99.90
11009;DHT22;5557;51.670;7.788;2022-12-11T00:22:29;0.50;99.90
11009;DHT22;5557;51.670;7.788;2022-12-11T00:24:56;0.50;99.90
11009;DHT22;5557;51.670;7.788;2022-12-11T00:27:23;0.50;99.90
11009;DHT22;5557;51.670;7.788;2022-12-11T00:29:50;0.50;99.90
11009;DHT22;5557;51.670;7.788;2022-12-11T00:32:17;0.50;99.90
11009;DHT22;5557;51.670;7.788;2022-12-11T00:34:44;0.50;99.90
11009;DHT22;5557;51.670;7.788;2022-12-11T00:37:11;0.50;99.90
11009;DHT22;5557;51.670;7.788;2022-12-11T00:39:38;0.40;99.90
11009;DHT22;5557;51.670;7.788;2022-12-11T00:42:06;0.40;99.90
11009;DHT22;5557;51.670;7.788;2022-12-11T00:44:34;0.40;99.90
11009;DHT22;5557;51.670;7.788;2022-12-11T00:47:01;0.30;99.90
11009;DHT22;5557;51.670;7.788;2022-12-11T00:49:28;0.40;99.90
11009;DHT22;5557;51.670;7.788;2022-12-11T00:51:55;0.30;99.90
11009;DHT22;5557;51.670;7.788;2022-12-11T00:54:22;0.30;99.90
11009;DHT22;5557;51.670;7.788;2022-12-11T00:56:49;0.30;99.90
11009;DHT22;5557;51.670;7.788;2022-12-11T00:59:16;0.30;99.90
11009;DHT22;5557;51.670;7.788;2022-12-11T01:01:43;0.30;99.90
11009;DHT22;5557;51.670;7.788;2022-12-11T01:04:10;0.30;99.90
11009;DHT22;5557;51.670;7.788;2022-12-11T01:06:38;0.30;99.90
11009;DHT22;5557;51.670;7.788;2022-12-11T01:09:05;0.30;99.90
11009;DHT22;5557;51.670;7.788;2022-12-11T01:11:51;0.30;99.90
11009;DHT22;5557;51.670;7.788;2022-12-11T01:14:18;0.20;99.90
11009;DHT22;5557;51.670;7.788;2022-12-11T01:16:45;0.30;99.90
11009;DHT22;5557;51.670;7.788;2022-12-11T01:19:12;0.20;99.90
11009;DHT22;5557;51.670;7.788;2022-12-11T01:21:39;0.20;99.90
11009;DHT22;5557;51.670;7.788;2022-12-11T01:24:06;0.20;99.90
11009;DHT22;5557;51.670;7.788;2022-12-11T01:26:33;0.20;99.90
11009;DHT22;5557;51.670;7.788;2022-12-11T01:29:01;0.20;99.90
11009;DHT22;5557;51.670;7.788;2022-12-11T01:31:28;0.20;99.90
11009;DHT22;5557;51.670;7.788;2022-12-11T01:33:55;0.20;99.90
11009;DHT22;5557;51.670;7.788;2022-12-11T01:36:26;0.10;99.90
11009;DHT22;5557;51.670;7.788;2022-12-11T01:38:53;0.10;99.90
11009;DHT22;5557;51.670;7.788;2022-12-11T01:41:20;0.10;99.90
11009;DHT22;5557;51.670;7.788;2022-12-11T01:45:00;0.10;99.90
11009;DHT22;5557;51.670;7.788;2022-12-11T01:46:53;0.10;99.90
11009;DHT22;5557;51.670;7.788;2022-12-11T01:49:22;0.10;99.90
11009;DHT22;5557;51.670;7.788;2022-12-11T01:52:11;0.10;99.90
11009;DHT22;5557;51.670;7.788;2022-12-11T01:54:41;0.10;99.90
11009;DHT22;5557;51.670;7.788;2022-12-11T01:57:10;0.10;99.90
11009;DHT22;5557;51.670;7.788;2022-12-11T01:59:42;0.10;99.90
11009;DHT22;5557;51.670;7.788;2022-12-11T02:02:16;0.10;99.90
11009;DHT22;5557;51.670;7.788;2022-12-11T02:04:45;0.10;99.90
11009;DHT22;5557;51.670;7.788;2022-12-11T02:07:13;0.10;99.90
11009;DHT22;5557;51.670;7.788;2022-12-11T02:09:42;0.10;99.90
11009;DHT22;5557;51.670;7.788;2022-12-11T02:12:25;0.00;99.90
11009;DHT22;5557;51.670;7.788;2022-12-11T02:18:36;0.10;99.90
11009;DHT22;5557;51.670;7.788;2022-12-11T02:21:19;0.00;99.90
11009;DHT22;5557;51.670;7.788;2022-12-11T02:23:59;0.00;99.90
11009;DHT22;5557;51.670;7.788;2022-12-11T02:26:53;0.00;99.90
11009;DHT22;5557;51.670;7.788;2022-12-11T02:29:36;0.00;99.90
11009;DHT22;5557;51.670;7.788;2022-12-11T02:32:17;0.00;99.90
11009;DHT22;5557;51.670;7.788;2022-12-11T02:35:10;0.00;99.90
11009;DHT22;5557;51.670;7.788;2022-12-11T02:37:42;0.00;99.90
11009;DHT22;5557;51.670;7.788;2022-12-11T02:40:12;-0.10;99.90
11009;DHT22;5557;51.670;7.788;2022-12-11T02:42:42;-0.10;99.90
11009;DHT22;5557;51.670;7.788;2022-12-11T02:45:11;-0.10;99.90
11009;DHT22;5557;51.670;7.788;2022-12-11T02:47:40;-0.10;99.90
11009;DHT22;5557;51.670;7.788;2022-12-11T02:50:12;-0.10;99.90
11009;DHT22;5557;51.670;7.788;2022-12-11T02:52:41;-0.10;99.90
11009;DHT22;5557;51.670;7.788;2022-12-11T02:55:10;-0.20;99.90
11009;DHT22;5557;51.670;7.788;2022-12-11T03:00:16;-0.20;99.90
11009;DHT22;5557;51.670;7.788;2022-12-11T03:02:44;-0.20;99.90
11009;DHT22;5557;51.670;7.788;2022-12-11T03:05:12;-0.30;99.90
11009;DHT22;5557;51.670;7.788;2022-12-11T03:07:41;-0.30;99.90
11009;DHT22;5557;51.670;7.788;2022-12-11T03:10:11;-0.30;99.90
11009;DHT22;5557;51.670;7.788;2022-12-11T03:12:43;-0.30;99.90
11009;DHT22;5557;51.670;7.788;2022-12-11T03:15:21;-0.20;99.90
11009;DHT22;5557;51.670;7.788;2022-12-11T03:18:07;-0.20;99.90
11009;DHT22;5557;51.670;7.788;2022-12-11T03:21:03;-0.20;99.90
11009;DHT22;5557;51.670;7.788;2022-12-11T03:23:49;-0.20;99.90
11009;DHT22;5557;51.670;7.788;2022-12-11T03:26:20;-0.20;99.90
11009;DHT22;5557;51.670;7.788;2022-12-11T03:28:57;-0.20;99.90
11009;DHT22;5557;51.670;7.788;2022-12-11T03:31:41;-0.10;99.90
11009;DHT22;5557;51.670;7.788;2022-12-11T03:34:26;-0.20;99.90
11009;DHT22;5557;51.670;7.788;2022-12-11T03:36:55;-0.10;99.90
11009;DHT22;5557;51.670;7.788;2022-12-11T03:39:28;-0.10;99.90
11009;DHT22;5557;51.670;7.788;2022-12-11T03:42:00;-0.10;99.90
11009;DHT22;5557;51.670;7.788;2022-12-11T03:44:29;-0.10;99.90
11009;DHT22;5557;51.670;7.788;2022-12-11T03:46:59;-0.10;99.90
11009;DHT22;5557;51.670;7.788;2022-12-11T03:49:29;-0.10;99.90
11009;DHT22;5557;51.670;7.788;2022-12-11T03:51:59;-0.10;99.90
11009;DHT22;5557;51.670;7.788;2022-12-11T03:54:27;-0.10;99.90
11009;DHT22;5557;51.670;7.788;2022-12-11T03:56:57;-0.10;99.90
11009;DHT22;5557;51.670;7.788;2022-12-11T03:59:28;-0.10;99.90
11009;DHT22;5557;51.670;7.788;2022-12-11T04:01:55;-0.10;99.90
11009;DHT22;5557;51.670;7.788;2022-12-11T04:04:22;-0.10;99.90
11009;DHT22;5557;51.670;7.788;2022-12-11T04:06:49;-0.10;99.90
11009;DHT22;5557;51.670;7.788;2022-12-11T04:09:16;-0.10;99.90
11009;DHT22;5557;51.670;7.788;2022-12-11T04:11:43;-0.10;99.90
11009;DHT22;5557;51.670;7.788;2022-12-11T04:14:12;-0.10;99.90
11009;DHT22;5557;51.670;7.788;2022-12-11T04:16:59;-0.10;99.90
11009;DHT22;5557;51.670;7.788;2022-12-11T04:19:26;-0.10;99.90
11009;DHT22;5557;51.670;7.788;2022-12-11T04:22:13;-0.10;99.90
11009;DHT22;5557;51.670;7.788;2022-12-11T04:25:01;-0.10;99.90
11009;DHT22;5557;51.670;7.788;2022-12-11T04:27:28;-0.10;99.90
11009;DHT22;5557;51.670;7.788;2022-12-11T04:30:22;-0.10;99.90
11009;DHT22;5557;51.670;7.788;2022-12-11T04:32:57;-0.10;99.90
11009;DHT22;5557;51.670;7.788;2022-12-11T04:35:24;-0.10;99.90
11009;DHT22;5557;51.670;7.788;2022-12-11T04:37:51;-0.10;99.90
11009;DHT22;5557;51.670;7.788;2022-12-11T04:40:19;-0.10;99.90
11009;DHT22;5557;51.670;7.788;2022-12-11T04:42:46;-0.10;99.90
11009;DHT22;5557;51.670;7.788;2022-12-11T04:45:14;-0.10;99.90
11009;DHT22;5557;51.670;7.788;2022-12-11T04:47:41;0.00;99.90
11009;DHT22;5557;51.670;7.788;2022-12-11T04:50:10;0.00;99.90
11009;DHT22;5557;51.670;7.788;2022-12-11T04:52:37;0.00;99.90
11009;DHT22;5557;51.670;7.788;2022-12-11T04:55:05;0.00;99.90
11009;DHT22;5557;51.670;7.788;2022-12-11T04:57:32;-0.10;99.90
11009;DHT22;5557;51.670;7.788;2022-12-11T04:59:59;-0.10;99.90
11009;DHT22;5557;51.670;7.788;2022-12-11T05:02:27;0.00;99.90
11009;DHT22;5557;51.670;7.788;2022-12-11T05:04:54;0.00;99.90
11009;DHT22;5557;51.670;7.788;2022-12-11T05:07:22;0.00;99.90
11009;DHT22;5557;51.670;7.788;2022-12-11T05:09:49;0.00;99.90
11009;DHT22;5557;51.670;7.788;2022-12-11T05:12:16;0.00;99.90
11009;DHT22;5557;51.670;7.788;2022-12-11T05:14:43;0.00;99.90
11009;DHT22;5557;51.670;7.788;2022-12-11T05:17:10;0.00;99.90
11009;DHT22;5557;51.670;7.788;2022-12-11T05:19:37;0.00;99.90
11009;DHT22;5557;51.670;7.788;2022-12-11T05:22:04;0.00;99.90
11009;DHT22;5557;51.670;7.788;2022-12-11T05:24:31;0.00;99.90
11009;DHT22;5557;51.670;7.788;2022-12-11T05:26:58;0.00;99.90
11009;DHT22;5557;51.670;7.788;2022-12-11T05:29:25;0.00;99.90
11009;DHT22;5557;51.670;7.788;2022-12-11T05:31:52;0.00;99.90
11009;DHT22;5557;51.670;7.788;2022-12-11T05:34:19;0.00;99.90
11009;DHT22;5557;51.670;7.788;2022-12-11T05:36:46;0.00;99.90
11009;DHT22;5557;51.670;7.788;2022-12-11T05:39:13;0.00;99.90
11009;DHT22;5557;51.670;7.788;2022-12-11T05:41:41;0.00;99.90
11009;DHT22;5557;51.670;7.788;2022-12-11T05:44:11;0.00;99.90
11009;DHT22;5557;51.670;7.788;2022-12-11T05:46:39;-0.10;99.90
11009;DHT22;5557;51.670;7.788;2022-12-11T05:49:06;0.00;99.90
11009;DHT22;5557;51.670;7.788;2022-12-11T05:51:34;0.00;99.90
11009;DHT22;5557;51.670;7.788;2022-12-11T05:54:01;-0.10;99.90
11009;DHT22;5557;51.670;7.788;2022-12-11T05:56:30;0.00;99.90
11009;DHT22;5557;51.670;7.788;2022-12-11T05:58:59;0.00;99.90
11009;DHT22;5557;51.670;7.788;2022-12-11T06:01:41;0.00;99.90
11009;DHT22;5557;51.670;7.788;2022-12-11T06:04:10;0.00;99.90
11009;DHT22;5557;51.670;7.788;2022-12-11T06:06:37;-0.10;99.90
11009;DHT22;5557;51.670;7.788;2022-12-11T06:09:06;-0.10;99.90
11009;DHT22;5557;51.670;7.788;2022-12-11T06:11:34;-0.10;99.90
11009;DHT22;5557;51.670;7.788;2022-12-11T06:14:02;-0.10;99.90
11009;DHT22;5557;51.670;7.788;2022-12-11T06:16:29;-0.10;99.90
11009;DHT22;5557;51.670;7.788;2022-12-11T06:18:57;-0.10;99.90
11009;DHT22;5557;51.670;7.788;2022-12-11T06:21:29;-0.10;99.90
11009;DHT22;5557;51.670;7.788;2022-12-11T06:23:58;-0.10;99.90
11009;DHT22;5557;51.670;7.788;2022-12-11T06:26:26;-0.10;99.90
11009;DHT22;5557;51.670;7.788;2022-12-11T06:28:54;0.00;99.90
11009;DHT22;5557;51.670;7.788;2022-12-11T06:31:21;0.00;99.90
11009;DHT22;5557;51.670;7.788;2022-12-11T06:33:48;0.00;99.90
11009;DHT22;5557;51.670;7.788;2022-12-11T06:36:18;0.00;99.90
11009;DHT22;5557;51.670;7.788;2022-12-11T06:38:45;0.00;99.90
11009;DHT22;5557;51.670;7.788;2022-12-11T06:41:13;0.00;99.90
11009;DHT22;5557;51.670;7.788;2022-12-11T06:43:41;0.00;99.90
11009;DHT22;5557;51.670;7.788;2022-12-11T06:46:15;0.00;99.90
11009;DHT22;5557;51.670;7.788;2022-12-11T06:48:43;-0.10;99.90
11009;DHT22;5557;51.670;7.788;2022-12-11T06:51:12;-0.10;99.90
11009;DHT22;5557;51.670;7.788;2022-12-11T06:53:40;-0.10;99.90
11009;DHT22;5557;51.670;7.788;2022-12-11T06:56:10;0.00;99.90
11009;DHT22;5557;51.670;7.788;2022-12-11T06:58:38;0.00;99.90
11009;DHT22;5557;51.670;7.788;2022-12-11T07:01:14;0.00;99.90
11009;DHT22;5557;51.670;7.788;2022-12-11T07:03:42;0.00;99.90
11009;DHT22;5557;51.670;7.788;2022-12-11T07:06:09;0.00;99.90
11009;DHT22;5557;51.670;7.788;2022-12-11T07:08:36;0.00;99.90
11009;DHT22;5557;51.670;7.788;2022-12-11T07:11:08;0.00;99.90
11009;DHT22;5557;51.670;7.788;2022-12-11T07:13:36;0.00;99.90
11009;DHT22;5557;51.670;7.788;2022-12-11T07:16:04;0.00;99.90
11009;DHT22;5557;51.670;7.788;2022-12-11T07:18:42;0.00;99.90
11009;DHT22;5557;51.670;7.788;2022-12-11T07:21:11;0.10;99.90
11009;DHT22;5557;51.670;7.788;2022-12-11T07:23:39;0.00;99.90
11009;DHT22;5557;51.670;7.788;2022-12-11T07:26:12;0.10;99.90
11009;DHT22;5557;51.670;7.788;2022-12-11T07:28:40;0.10;99.90
11009;DHT22;5557;51.670;7.788;2022-12-11T07:31:22;0.10;99.90
11009;DHT22;5557;51.670;7.788;2022-12-11T07:33:58;0.10;99.90
11009;DHT22;5557;51.670;7.788;2022-12-11T07:36:28;0.00;99.90
11009;DHT22;5557;51.670;7.788;2022-12-11T07:38:55;0.10;99.90
11009;DHT22;5557;51.670;7.788;2022-12-11T07:41:23;0.10;99.90
11009;DHT22;5557;51.670;7.788;2022-12-11T07:43:50;0.00;99.90
11009;DHT22;5557;51.670;7.788;2022-12-11T07:46:20;0.00;99.90
11009;DHT22;5557;51.670;7.788;2022-12-11T07:48:47;0.10;99.90
11009;DHT22;5557;51.670;7.788;2022-12-11T07:51:29;0.10;99.90
11009;DHT22;5557;51.670;7.788;2022-12-11T07:54:02;0.10;99.90
11009;DHT22;5557;51.670;7.788;2022-12-11T07:59:09;0.10;99.90
11009;DHT22;5557;51.670;7.788;2022-12-11T08:01:38;0.10;99.90
11009;DHT22;5557;51.670;7.788;2022-12-11T08:04:07;0.20;99.90
11009;DHT22;5557;51.670;7.788;2022-12-11T08:06:37;0.20;99.90
11009;DHT22;5557;51.670;7.788;2022-12-11T08:09:07;0.20;99.90
11009;DHT22;5557;51.670;7.788;2022-12-11T08:11:34;0.20;99.90
11009;DHT22;5557;51.670;7.788;2022-12-11T08:14:01;0.20;99.90
11009;DHT22;5557;51.670;7.788;2022-12-11T08:16:29;0.20;99.90
11009;DHT22;5557;51.670;7.788;2022-12-11T08:18:57;0.20;99.90
11009;DHT22;5557;51.670;7.788;2022-12-11T08:21:25;0.20;99.90
11009;DHT22;5557;51.670;7.788;2022-12-11T08:23:53;0.20;99.90
11009;DHT22;5557;51.670;7.788;2022-12-11T08:26:26;0.20;99.90
11009;DHT22;5557;51.670;7.788;2022-12-11T08:28:53;0.20;99.90
11009;DHT22;5557;51.670;7.788;2022-12-11T08:31:21;0.20;99.90
11009;DHT22;5557;51.670;7.788;2022-12-11T08:33:49;0.20;99.90
11009;DHT22;5557;51.670;7.788;2022-12-11T08:36:20;0.30;99.90
11009;DHT22;5557;51.670;7.788;2022-12-11T08:38:49;0.20;99.90
11009;DHT22;5557;51.670;7.788;2022-12-11T08:41:25;0.20;99.90
11009;DHT22;5557;51.670;7.788;2022-12-11T08:43:53;0.20;99.90
11009;DHT22;5557;51.670;7.788;2022-12-11T08:46:25;0.30;99.90
11009;DHT22;5557;51.670;7.788;2022-12-11T08:48:54;0.20;99.90
11009;DHT22;5557;51.670;7.788;2022-12-11T08:51:23;0.30;99.90
11009;DHT22;5557;51.670;7.788;2022-12-11T08:53:50;0.30;99.90
11009;DHT22;5557;51.670;7.788;2022-12-11T08:56:20;0.30;99.90
11009;DHT22;5557;51.670;7.788;2022-12-11T08:58:49;0.30;99.90
11009;DHT22;5557;51.670;7.788;2022-12-11T09:01:25;0.30;99.90
11009;DHT22;5557;51.670;7.788;2022-12-11T09:03:53;0.30;99.90
11009;DHT22;5557;51.670;7.788;2022-12-11T09:06:23;0.30;99.90
11009;DHT22;5557;51.670;7.788;2022-12-11T09:08:51;0.30;99.90
11009;DHT22;5557;51.670;7.788;2022-12-11T09:11:22;0.30;99.90
11009;DHT22;5557;51.670;7.788;2022-12-11T09:13:49;0.30;99.90
11009;DHT22;5557;51.670;7.788;2022-12-11T09:16:19;0.30;99.90
11009;DHT22;5557;51.670;7.788;2022-12-11T09:18:48;0.30;99.90
11009;DHT22;5557;51.670;7.788;2022-12-11T09:21:18;0.30;99.90
11009;DHT22;5557;51.670;7.788;2022-12-11T09:23:46;0.30;99.90
11009;DHT22;5557;51.670;7.788;2022-12-11T09:26:15;0.30;99.90
11009;DHT22;5557;51.670;7.788;2022-12-11T09:28:43;0.30;99.90
11009;DHT22;5557;51.670;7.788;2022-12-11T09:31:16;0.30;99.90
11009;DHT22;5557;51.670;7.788;2022-12-11T09:33:45;0.30;99.90
11009;DHT22;5557;51.670;7.788;2022-12-11T09:36:13;0.30;99.90
11009;DHT22;5557;51.670;7.788;2022-12-11T09:38:40;0.30;99.90
11009;DHT22;5557;51.670;7.788;2022-12-11T09:44:45;0.30;99.90
11009;DHT22;5557;51.670;7.788;2022-12-11T09:47:39;0.30;99.90
11009;DHT22;5557;51.670;7.788;2022-12-11T09:50:18;0.30;99.90
11009;DHT22;5557;51.670;7.788;2022-12-11T09:53:17;0.30;99.90
11009;DHT22;5557;51.670;7.788;2022-12-11T09:55:59;0.30;99.90
11009;DHT22;5557;51.670;7.788;2022-12-11T09:59:17;0.30;99.90
11009;DHT22;5557;51.670;7.788;2022-12-11T10:02:17;0.40;99.90
11009;DHT22;5557;51.670;7.788;2022-12-11T10:05:20;0.50;99.90
11009;DHT22;5557;51.670;7.788;2022-12-11T10:07:55;0.50;99.90
11009;DHT22;5557;51.670;7.788;2022-12-11T10:11:21;0.50;99.90
11009;DHT22;5557;51.670;7.788;2022-12-11T10:13:51;0.50;99.90
11009;DHT22;5557;51.670;7.788;2022-12-11T10:16:45;0.40;99.90
11009;DHT22;5557;51.670;7.788;2022-12-11T10:19:23;0.40;99.90
11009;DHT22;5557;51.670;7.788;2022-12-11T10:21:52;0.50;99.90
11009;DHT22;5557;51.670;7.788;2022-12-11T10:24:44;0.50;99.90
11009;DHT22;5557;51.670;7.788;2022-12-11T10:27:38;0.50;99.90
11009;DHT22;5557;51.670;7.788;2022-12-11T10:30:22;0.40;99.90
11009;DHT22;5557;51.670;7.788;2022-12-11T10:35:51;0.40;99.90
11009;DHT22;5557;51.670;7.788;2022-12-11T10:38:37;0.50;99.90
11009;DHT22;5557;51.670;7.788;2022-12-11T10:41:11;0.50;99.90
11009;DHT22;5557;51.670;7.788;2022-12-11T10:43:44;0.50;99.90
11009;DHT22;5557;51.670;7.788;2022-12-11T10:46:23;0.50;99.90
11009;DHT22;5557;51.670;7.788;2022-12-11T10:48:56;0.50;99.90
11009;DHT22;5557;51.670;7.788;2022-12-11T10:51:34;0.60;99.90
11009;DHT22;5557;51.670;7.788;2022-12-11T10:54:14;0.60;99.90
11009;DHT22;5557;51.670;7.788;2022-12-11T10:56:46;0.60;99.90
11009;DHT22;5557;51.670;7.788;2022-12-11T10:59:29;0.60;99.90
11009;DHT22;5557;51.670;7.788;2022-12-11T11:01:57;0.60;99.90
11009;DHT22;5557;51.670;7.788;2022-12-11T11:04:40;0.60;99.90
11009;DHT22;5557;51.670;7.788;2022-12-11T11:07:18;0.60;99.90
11009;DHT22;5557;51.670;7.788;2022-12-11T11:09:45;0.60;99.90
11009;DHT22;5557;51.670;7.788;2022-12-11T11:12:24;0.60;99.90
11009;DHT22;5557;51.670;7.788;2022-12-11T11:15:06;0.60;99.90
11009;DHT22;5557;51.670;7.788;2022-12-11T11:17:42;0.70;99.90
11009;DHT22;5557;51.670;7.788;2022-12-11T11:20:26;0.70;99.90
11009;DHT22;5557;51.670;7.788;2022-12-11T11:22:59;0.80;99.90
11009;DHT22;5557;51.670;7.788;2022-12-11T11:25:30;0.80;99.90
11009;DHT22;5557;51.670;7.788;2022-12-11T11:28:02;0.70;99.90
11009;DHT22;5557;51.670;7.788;2022-12-11T11:30:39;0.70;99.90
11009;DHT22;5557;51.670;7.788;2022-12-11T11:33:17;0.70;99.90
11009;DHT22;5557;51.670;7.788;2022-12-11T11:35:59;0.70;99.90
11009;DHT22;5557;51.670;7.788;2022-12-11T11:38:41;0.70;99.90
11009;DHT22;5557;51.670;7.788;2022-12-11T11:41:24;0.80;99.90
11009;DHT22;5557;51.670;7.788;2022-12-11T11:43:57;0.80;99.90
11009;DHT22;5557;51.670;7.788;2022-12-11T11:46:46;0.90;99.90
11009;DHT22;5557;51.670;7.788;2022-12-11T11:49:42;0.90;99.90
11009;DHT22;5557;51.670;7.788;2022-12-11T11:52:18;0.90;99.90
11009;DHT22;5557;51.670;7.788;2022-12-11T11:55:06;0.90;99.90
11009;DHT22;5557;51.670;7.788;2022-12-11T11:57:56;0.90;99.90
11009;DHT22;5557;51.670;7.788;2022-12-11T12:00:26;0.90;99.90
11009;DHT22;5557;51.670;7.788;2022-12-11T12:03:11;0.90;99.90
11009;DHT22;5557;51.670;7.788;2022-12-11T12:09:33;0.90;99.90
11009;DHT22;5557;51.670;7.788;2022-12-11T12:12:33;0.90;99.90
11009;DHT22;5557;51.670;7.788;2022-12-11T12:18:31;0.90;99.90
11009;DHT22;5557;51.670;7.788;2022-12-11T12:21:10;0.90;99.10
11009;DHT22;5557;51.670;7.788;2022-12-11T12:23:57;0.90;98.90
11009;DHT22;5557;51.670;7.788;2022-12-11T12:26:40;0.90;98.30
11009;DHT22;5557;51.670;7.788;2022-12-11T12:29:47;0.90;97.90
11009;DHT22;5557;51.670;7.788;2022-12-11T12:35:49;0.90;97.10
11009;DHT22;5557;51.670;7.788;2022-12-11T12:38:55;0.90;96.40
11009;DHT22;5557;51.670;7.788;2022-12-11T12:45:24;0.90;96.50
11009;DHT22;5557;51.670;7.788;2022-12-11T12:47:46;0.90;95.90
11009;DHT22;5557;51.670;7.788;2022-12-11T12:50:22;0.80;94.80
11009;DHT22;5557;51.670;7.788;2022-12-11T12:52:50;0.80;95.20
11009;DHT22;5557;51.670;7.788;2022-12-11T12:55:26;0.80;95.90
11009;DHT22;5557;51.670;7.788;2022-12-11T12:58:03;0.80;96.40
11009;DHT22;5557;51.670;7.788;2022-12-11T13:00:34;0.80;96.30
11009;DHT22;5557;51.670;7.788;2022-12-11T13:03:23;0.80;96.10
11009;DHT22;5557;51.670;7.788;2022-12-11T13:06:43;0.80;95.80
11009;DHT22;5557;51.670;7.788;2022-12-11T13:08:52;0.80;95.80
11009;DHT22;5557;51.670;7.788;2022-12-11T13:11:20;0.80;96.00
11009;DHT22;5557;51.670;7.788;2022-12-11T13:14:27;0.70;96.50
11009;DHT22;5557;51.670;7.788;2022-12-11T13:17:24;0.70;95.40
11009;DHT22;5557;51.670;7.788;2022-12-11T13:20:14;0.60;96.20
11009;DHT22;5557;51.670;7.788;2022-12-11T13:25:51;0.60;97.40
11009;DHT22;5557;51.670;7.788;2022-12-11T13:28:45;0.60;97.90
11009;DHT22;5557;51.670;7.788;2022-12-11T13:33:47;0.60;98.30
11009;DHT22;5557;51.670;7.788;2022-12-11T13:36:23;0.60;98.80
11009;DHT22;5557;51.670;7.788;2022-12-11T13:38:54;0.60;98.60
11009;DHT22;5557;51.670;7.788;2022-12-11T13:41:23;0.50;97.00
11009;DHT22;5557;51.670;7.788;2022-12-11T13:43:51;0.50;97.00
11009;DHT22;5557;51.670;7.788;2022-12-11T13:46:28;0.50;97.70
11009;DHT22;5557;51.670;7.788;2022-12-11T13:49:02;0.60;98.20
11009;DHT22;5557;51.670;7.788;2022-12-11T13:51:32;0.60;98.30
11009;DHT22;5557;51.670;7.788;2022-12-11T13:54:14;0.60;97.70
11009;DHT22;5557;51.670;7.788;2022-12-11T13:57:22;0.50;96.70
11009;DHT22;5557;51.670;7.788;2022-12-11T13:59:56;0.50;96.10
11009;DHT22;5557;51.670;7.788;2022-12-11T14:02:33;0.50;96.10
11009;DHT22;5557;51.670;7.788;2022-12-11T14:05:19;0.50;96.00
11009;DHT22;5557;51.670;7.788;2022-12-11T14:07:50;0.50;95.70
11009;DHT22;5557;51.670;7.788;2022-12-11T14:10:23;0.50;95.50
11009;DHT22;5557;51.670;7.788;2022-12-11T14:13:16;0.50;95.50
11009;DHT22;5557;51.670;7.788;2022-12-11T14:15:45;0.50;95.10
11009;DHT22;5557;51.670;7.788;2022-12-11T14:18:17;0.40;94.70
11009;DHT22;5557;51.670;7.788;2022-12-11T14:20:52;0.50;95.40
11009;DHT22;5557;51.670;7.788;2022-12-11T14:23:25;0.50;94.30
11009;DHT22;5557;51.670;7.788;2022-12-11T14:25:55;0.50;94.30
11009;DHT22;5557;51.670;7.788;2022-12-11T14:28:24;0.50;94.70
11009;DHT22;5557;51.670;7.788;2022-12-11T14:30:58;0.50;94.80
11009;DHT22;5557;51.670;7.788;2022-12-11T14:33:35;0.50;95.10
11009;DHT22;5557;51.670;7.788;2022-12-11T14:36:05;0.50;94.80
11009;DHT22;5557;51.670;7.788;2022-12-11T14:38:35;0.50;94.90
11009;DHT22;5557;51.670;7.788;2022-12-11T14:41:09;0.50;95.00
11009;DHT22;5557;51.670;7.788;2022-12-11T14:43:48;0.50;95.20
11009;DHT22;5557;51.670;7.788;2022-12-11T14:46:31;0.50;95.00
11009;DHT22;5557;51.670;7.788;2022-12-11T14:51:49;0.40;96.20
11009;DHT22;5557;51.670;7.788;2022-12-11T14:56:57;0.40;95.60
11009;DHT22;5557;51.670;7.788;2022-12-11T14:59:25;0.40;95.80
11009;DHT22;5557;51.670;7.788;2022-12-11T15:02:03;0.40;96.20
11009;DHT22;5557;51.670;7.788;2022-12-11T15:05:01;0.40;95.50
11009;DHT22;5557;51.670;7.788;2022-12-11T15:07:28;0.40;94.90
11009;DHT22;5557;51.670;7.788;2022-12-11T15:09:55;0.40;94.30
11009;DHT22;5557;51.670;7.788;2022-12-11T15:12:23;0.30;94.90
11009;DHT22;5557;51.670;7.788;2022-12-11T15:14:58;0.30;95.20
11009;DHT22;5557;51.670;7.788;2022-12-11T15:17:29;0.30;95.50
11009;DHT22;5557;51.670;7.788;2022-12-11T15:20:06;0.30;96.20
11009;DHT22;5557;51.670;7.788;2022-12-11T15:22:35;0.30;96.70
11009;DHT22;5557;51.670;7.788;2022-12-11T15:25:03;0.30;97.20
11009;DHT22;5557;51.670;7.788;2022-12-11T15:27:36;0.30;97.30
11009;DHT22;5557;51.670;7.788;2022-12-11T15:30:38;0.30;97.40
11009;DHT22;5557;51.670;7.788;2022-12-11T15:33:16;0.30;97.40
11009;DHT22;5557;51.670;7.788;2022-12-11T15:35:56;0.30;98.00
11009;DHT22;5557;51.670;7.788;2022-12-11T15:38:37;0.40;98.40
11009;DHT22;5557;51.670;7.788;2022-12-11T15:41:13;0.40;98.80
11009;DHT22;5557;51.670;7.788;2022-12-11T15:43:43;0.40;99.10
11009;DHT22;5557;51.670;7.788;2022-12-11T15:46:10;0.40;98.60
11009;DHT22;5557;51.670;7.788;2022-12-11T15:48:38;0.30;98.30
11009;DHT22;5557;51.670;7.788;2022-12-11T15:51:05;0.30;98.10
11009;DHT22;5557;51.670;7.788;2022-12-11T15:53:32;0.30;98.00
11009;DHT22;5557;51.670;7.788;2022-12-11T15:55:59;0.30;97.20
11009;DHT22;5557;51.670;7.788;2022-12-11T15:58:27;0.40;96.80
11009;DHT22;5557;51.670;7.788;2022-12-11T16:00:55;0.40;96.90
11009;DHT22;5557;51.670;7.788;2022-12-11T16:03:23;0.40;97.00
11009;DHT22;5557;51.670;7.788;2022-12-11T16:05:51;0.40;96.90
11009;DHT22;5557;51.670;7.788;2022-12-11T16:08:21;0.40;96.50
11009;DHT22;5557;51.670;7.788;2022-12-11T16:10:50;0.40;96.40
11009;DHT22;5557;51.670;7.788;2022-12-11T16:13:17;0.40;96.60
11009;DHT22;5557;51.670;7.788;2022-12-11T16:15:47;0.30;96.20
11009;DHT22;5557;51.670;7.788;2022-12-11T16:18:17;0.30;96.20
11009;DHT22;5557;51.670;7.788;2022-12-11T16:20:46;0.30;96.00
11009;DHT22;5557;51.670;7.788;2022-12-11T16:23:13;0.30;95.70
11009;DHT22;5557;51.670;7.788;2022-12-11T16:25:43;0.30;95.80
11009;DHT22;5557;51.670;7.788;2022-12-11T16:28:12;0.30;95.90
11009;DHT22;5557;51.670;7.788;2022-12-11T16:30:40;0.30;96.20
11009;DHT22;5557;51.670;7.788;2022-12-11T16:33:11;0.30;96.20
11009;DHT22;5557;51.670;7.788;2022-12-11T16:35:40;0.30;96.40
11009;DHT22;5557;51.670;7.788;2022-12-11T16:38:09;0.30;96.60
11009;DHT22;5557;51.670;7.788;2022-12-11T16:40:37;0.30;96.90
11009;DHT22;5557;51.670;7.788;2022-12-11T16:43:04;0.30;97.10
11009;DHT22;5557;51.670;7.788;2022-12-11T16:45:31;0.30;97.40
11009;DHT22;5557;51.670;7.788;2022-12-11T16:48:02;0.30;97.50
11009;DHT22;5557;51.670;7.788;2022-12-11T16:50:30;0.30;97.50
11009;DHT22;5557;51.670;7.788;2022-12-11T16:52:58;0.30;97.70
11009;DHT22;5557;51.670;7.788;2022-12-11T16:55:25;0.30;98.00
11009;DHT22;5557;51.670;7.788;2022-12-11T16:57:52;0.30;98.20
11009;DHT22;5557;51.670;7.788;2022-12-11T17:00:19;0.30;98.10
11009;DHT22;5557;51.670;7.788;2022-12-11T17:02:46;0.30;98.20
11009;DHT22;5557;51.670;7.788;2022-12-11T17:05:13;0.30;98.10
11009;DHT22;5557;51.670;7.788;2022-12-11T17:07:41;0.30;98.10
11009;DHT22;5557;51.670;7.788;2022-12-11T17:10:08;0.30;98.10
11009;DHT22;5557;51.670;7.788;2022-12-11T17:12:35;0.30;98.40
11009;DHT22;5557;51.670;7.788;2022-12-11T17:15:02;0.30;98.70
11009;DHT22;5557;51.670;7.788;2022-12-11T17:17:30;0.30;98.90